createdAt,value
2023-10-03T00:00:53.746Z,101129.19
2023-10-03T00:03:20.795Z,101117.88
2023-10-03T00:05:49.086Z,101103.09
2023-10-03T00:08:15.661Z,101105.59
2023-10-03T00:10:42.328Z,101093.25
2023-10-03T00:13:09.411Z,101093.06
2023-10-03T00:15:40.358Z,101068.69
2023-10-03T00:18:07.077Z,101082.97
2023-10-03T00:20:33.599Z,101076.09
2023-10-03T00:23:00.494Z,101063.03
2023-10-03T00:25:27.992Z,101057.56
2023-10-03T00:27:57.267Z,101063.78
2023-10-03T00:30:27.170Z,101054.59
2023-10-03T00:32:55.512Z,101055.50
2023-10-03T00:35:22.400Z,101048.00
2023-10-03T00:37:52.008Z,101036.13
2023-10-03T00:40:22.609Z,101036.22
2023-10-03T00:42:50.513Z,101034.38
2023-10-03T00:45:22.395Z,101031.22
2023-10-03T00:47:54.904Z,101027.97
2023-10-03T00:50:24.847Z,101014.22
2023-10-03T00:52:59.115Z,101009.78
2023-10-03T00:55:30.042Z,101004.88
2023-10-03T00:58:20.510Z,100995.22
2023-10-03T01:00:51.416Z,100990.03
2023-10-03T01:03:39.482Z,100985.47
2023-10-03T01:06:12.034Z,100982.06
2023-10-03T01:08:41.558Z,100971.22
2023-10-03T01:11:16.424Z,100973.81
2023-10-03T01:13:47.598Z,100961.88
2023-10-03T01:16:28.801Z,100960.00
2023-10-03T01:19:00.217Z,100951.84
2023-10-03T01:21:27.282Z,100947.75
2023-10-03T01:23:54.768Z,100945.34
2023-10-03T01:26:22.392Z,100934.25
2023-10-03T01:28:49.706Z,100924.69
2023-10-03T01:31:16.580Z,100926.44
2023-10-03T01:33:43.312Z,100922.84
2023-10-03T01:36:11.648Z,100913.19
2023-10-03T01:38:38.850Z,100914.94
2023-10-03T01:41:07.811Z,100906.41
2023-10-03T01:43:34.660Z,100909.00
2023-10-03T01:46:01.140Z,100886.81
2023-10-03T01:48:28.156Z,100883.50
2023-10-03T01:50:54.827Z,100884.53
2023-10-03T01:53:21.411Z,100869.97
2023-10-03T01:55:48.082Z,100870.16
2023-10-03T01:58:14.976Z,100876.09
2023-10-03T02:00:41.716Z,100881.50
2023-10-03T02:03:14.082Z,100871.09
2023-10-03T02:05:44.477Z,100867.94
2023-10-03T02:08:17.774Z,100873.34
2023-10-03T02:10:45.416Z,100865.56
2023-10-03T02:13:15.836Z,100860.47
2023-10-03T02:15:43.803Z,100863.34
2023-10-03T02:18:11.075Z,100868.63
2023-10-03T02:20:47.985Z,100865.09
2023-10-03T02:23:20.298Z,100861.66
2023-10-03T02:25:51.218Z,100852.13
2023-10-03T02:28:18.904Z,100848.50
2023-10-03T02:30:48.389Z,100847.59
2023-10-03T02:33:16.430Z,100846.56
2023-10-03T02:35:45.667Z,100810.03
2023-10-03T02:38:21.812Z,100836.41
2023-10-03T02:40:48.298Z,100835.31
2023-10-03T02:43:14.784Z,100855.03
2023-10-03T02:45:43.000Z,100849.66
2023-10-03T02:48:21.325Z,100846.91
2023-10-03T02:50:49.114Z,100844.19
2023-10-03T02:53:19.075Z,100841.31
2023-10-03T02:55:46.463Z,100829.19
2023-10-03T02:58:14.777Z,100827.09
2023-10-03T03:00:42.878Z,100825.06
2023-10-03T03:03:11.179Z,100822.78
2023-10-03T03:05:39.216Z,100813.03
2023-10-03T03:08:19.867Z,100813.75
2023-10-03T03:10:50.882Z,100809.31
2023-10-03T03:13:17.393Z,100799.84
2023-10-03T03:15:52.949Z,100808.56
2023-10-03T03:18:25.387Z,100804.94
2023-10-03T03:20:58.567Z,100802.34
2023-10-03T03:23:37.794Z,100799.94
2023-10-03T03:26:22.988Z,100800.25
2023-10-03T03:28:59.546Z,100800.34
2023-10-03T03:31:33.566Z,100800.06
2023-10-03T03:34:02.148Z,100803.47
2023-10-03T03:36:35.910Z,100811.59
2023-10-03T03:39:07.411Z,100797.78
2023-10-03T03:41:35.664Z,100806.03
2023-10-03T03:44:02.565Z,100806.84
2023-10-03T03:46:30.860Z,100806.75
2023-10-03T03:48:59.723Z,100801.03
2023-10-03T03:51:26.494Z,100813.75
2023-10-03T03:53:53.023Z,100814.16
2023-10-03T03:56:19.574Z,100812.69
2023-10-03T03:58:46.698Z,100814.59
2023-10-03T04:01:21.458Z,100816.47
2023-10-03T04:03:52.164Z,100828.00
2023-10-03T04:06:22.437Z,100839.56
2023-10-03T04:09:06.898Z,100848.09
2023-10-03T04:11:35.208Z,100832.38
2023-10-03T04:14:05.289Z,100851.41
2023-10-03T04:16:39.453Z,100844.03
2023-10-03T04:19:07.035Z,100850.88
2023-10-03T04:21:34.276Z,100849.75
2023-10-03T04:24:01.140Z,100836.56
2023-10-03T04:26:28.852Z,100838.31
2023-10-03T04:28:55.326Z,100856.63
2023-10-03T04:31:21.783Z,100853.63
2023-10-03T04:33:48.430Z,100858.06
2023-10-03T04:36:16.443Z,100865.97
2023-10-03T04:38:43.953Z,100866.84
2023-10-03T04:41:10.929Z,100858.28
2023-10-03T04:43:37.832Z,100861.81
2023-10-03T04:46:05.705Z,100852.66
2023-10-03T04:48:32.628Z,100859.00
2023-10-03T04:51:00.626Z,100860.94
2023-10-03T04:53:27.419Z,100863.75
2023-10-03T04:55:54.005Z,100865.75
2023-10-03T04:58:20.596Z,100880.59
2023-10-03T05:00:47.053Z,100870.28
2023-10-03T05:03:14.707Z,100864.47
2023-10-03T05:05:41.520Z,100852.63
2023-10-03T05:08:11.130Z,100854.41
2023-10-03T05:10:37.965Z,100874.66
2023-10-03T05:13:07.595Z,100873.94
2023-10-03T05:15:34.019Z,100868.91
2023-10-03T05:18:01.909Z,100880.25
2023-10-03T05:20:40.596Z,100891.56
2023-10-03T05:23:07.611Z,100881.28
2023-10-03T05:25:43.736Z,100896.06
2023-10-03T05:28:13.589Z,100892.81
2023-10-03T05:30:41.242Z,100891.06
2023-10-03T05:33:08.732Z,100906.66
2023-10-03T05:35:36.116Z,100882.09
2023-10-03T05:38:08.139Z,100885.75
2023-10-03T05:40:35.135Z,100898.75
2023-10-03T05:43:06.460Z,100886.69
2023-10-03T05:45:36.335Z,100901.50
2023-10-03T05:48:06.105Z,100904.13
2023-10-03T05:50:34.540Z,100906.66
2023-10-03T05:53:01.890Z,100902.47
2023-10-03T05:55:28.309Z,100907.56
2023-10-03T05:57:55.157Z,100931.47
2023-10-03T06:00:22.352Z,100925.34
2023-10-03T06:02:49.109Z,100924.63
2023-10-03T06:05:16.509Z,100922.03
2023-10-03T06:07:44.658Z,100942.91
2023-10-03T06:10:18.054Z,100932.44
2023-10-03T06:12:45.574Z,100936.78
2023-10-03T06:15:14.294Z,100941.66
2023-10-03T06:17:41.785Z,100933.81
2023-10-03T06:20:11.240Z,100943.25
2023-10-03T06:22:40.687Z,100939.72
2023-10-03T06:25:08.506Z,100934.63
2023-10-03T06:27:34.924Z,100946.78
2023-10-03T06:30:01.515Z,100957.81
2023-10-03T06:32:28.097Z,100950.72
2023-10-03T06:34:54.591Z,100953.88
2023-10-03T06:37:21.042Z,100959.81
2023-10-03T06:39:48.401Z,100984.16
2023-10-03T06:42:15.703Z,100986.75
2023-10-03T06:44:43.864Z,100991.75
2023-10-03T06:47:11.900Z,100981.88
2023-10-03T06:49:38.668Z,100984.09
2023-10-03T06:52:05.238Z,100982.22
2023-10-03T06:54:32.094Z,100985.44
2023-10-03T06:56:58.929Z,101009.69
2023-10-03T06:59:25.752Z,100998.44
2023-10-03T07:01:52.300Z,101005.63
2023-10-03T07:04:19.892Z,100997.00
2023-10-03T07:06:47.237Z,100999.50
2023-10-03T07:09:14.948Z,101012.59
2023-10-03T07:11:41.487Z,101020.50
2023-10-03T07:14:13.887Z,101045.63
2023-10-03T07:16:42.358Z,101034.50
2023-10-03T07:19:10.747Z,101049.25
2023-10-03T07:21:37.601Z,101053.63
2023-10-03T07:24:05.074Z,101051.97
2023-10-03T07:26:33.246Z,101061.34
2023-10-03T07:29:02.554Z,101055.22
2023-10-03T07:31:33.483Z,101062.25
2023-10-03T07:34:00.720Z,101062.25
2023-10-03T07:36:27.220Z,101074.44
2023-10-03T07:38:53.667Z,101062.25
2023-10-03T07:41:22.362Z,101063.41
2023-10-03T07:43:49.004Z,101048.72
2023-10-03T07:46:20.842Z,101044.25
2023-10-03T07:48:48.133Z,101068.41
2023-10-03T07:51:18.057Z,101079.94
2023-10-03T07:53:44.643Z,101097.56
2023-10-03T07:56:26.100Z,101095.44
2023-10-03T07:58:54.927Z,101113.94
2023-10-03T08:01:25.827Z,101138.91
2023-10-03T08:03:57.440Z,101154.78
2023-10-03T08:06:26.328Z,101159.03
2023-10-03T08:08:54.081Z,101176.00
2023-10-03T08:11:30.007Z,101170.03
2023-10-03T08:14:01.233Z,101168.03
2023-10-03T08:16:28.704Z,101172.56
2023-10-03T08:19:03.237Z,101187.88
2023-10-03T08:21:30.479Z,101209.28
2023-10-03T08:23:58.669Z,101218.06
2023-10-03T08:26:26.626Z,101210.09
2023-10-03T08:29:00.906Z,101225.28
2023-10-03T08:31:28.556Z,101233.44
2023-10-03T08:33:58.900Z,101256.63
2023-10-03T08:36:29.962Z,101262.38
2023-10-03T08:39:06.837Z,101255.72
2023-10-03T08:41:47.075Z,101248.59
2023-10-03T08:44:14.818Z,101266.00
2023-10-03T08:46:49.600Z,101268.59
2023-10-03T08:49:19.592Z,101269.34
2023-10-03T08:51:49.532Z,101283.81
2023-10-03T08:54:16.446Z,101297.72
2023-10-03T08:56:43.101Z,101299.13
2023-10-03T08:59:10.665Z,101301.22
2023-10-03T09:01:47.871Z,101308.16
2023-10-03T09:04:17.560Z,101319.38
2023-10-03T09:06:45.571Z,101320.72
2023-10-03T09:09:17.973Z,101315.06
2023-10-03T09:11:46.159Z,101321.22
2023-10-03T09:14:13.915Z,101334.88
2023-10-03T09:16:40.561Z,101348.72
2023-10-03T09:19:10.684Z,101362.44
2023-10-03T09:21:37.719Z,101352.94
2023-10-03T09:24:13.912Z,101357.56
2023-10-03T09:26:49.258Z,101357.41
2023-10-03T09:29:31.863Z,101360.00
2023-10-03T09:32:00.464Z,101370.94
2023-10-03T09:34:33.847Z,101370.91
2023-10-03T09:37:04.068Z,101382.28
2023-10-03T09:39:40.913Z,101383.38
2023-10-03T09:42:16.869Z,101386.78
2023-10-03T09:44:49.721Z,101389.53
2023-10-03T09:47:20.311Z,101410.16
2023-10-03T09:49:48.803Z,101417.59
2023-10-03T09:52:34.663Z,101417.25
2023-10-03T09:55:14.711Z,101426.56
2023-10-03T09:57:41.698Z,101445.88
2023-10-03T10:00:24.708Z,101443.81
2023-10-03T10:02:56.976Z,101455.13
2023-10-03T10:05:28.718Z,101453.69
2023-10-03T10:08:19.089Z,101451.94
2023-10-03T10:11:12.822Z,101457.72
2023-10-03T10:13:48.278Z,101447.78
2023-10-03T10:16:17.608Z,101456.75
2023-10-03T10:18:44.998Z,101453.88
2023-10-03T10:21:20.957Z,101451.28
2023-10-03T10:24:12.464Z,101456.75
2023-10-03T10:26:39.864Z,101468.75
2023-10-03T10:29:09.760Z,101466.97
2023-10-03T10:31:39.952Z,101477.53
2023-10-03T10:34:21.656Z,101484.50
2023-10-03T10:37:12.315Z,101484.94
2023-10-03T10:40:26.657Z,101494.81
2023-10-03T10:43:06.161Z,101490.94
2023-10-03T10:45:40.219Z,101499.00
2023-10-03T10:48:08.103Z,101504.53
2023-10-03T10:51:05.920Z,101511.09
2023-10-03T10:53:38.689Z,101523.75
2023-10-03T10:56:09.165Z,101522.97
2023-10-03T10:58:53.052Z,101529.47
2023-10-03T11:01:20.472Z,101532.63
2023-10-03T11:03:48.674Z,101527.06
2023-10-03T11:06:19.336Z,101528.75
2023-10-03T11:08:47.581Z,101541.66
2023-10-03T11:11:14.848Z,101544.31
2023-10-03T11:13:46.959Z,101550.81
2023-10-03T11:16:21.979Z,101551.28
2023-10-03T11:18:49.774Z,101550.06
2023-10-03T11:21:17.866Z,101552.34
2023-10-03T11:24:19.935Z,101570.66
2023-10-03T11:26:51.949Z,101570.81
2023-10-03T11:29:38.977Z,101576.41
2023-10-03T11:32:07.259Z,101591.28
2023-10-03T11:34:39.650Z,101595.16
2023-10-03T11:37:06.220Z,101605.81
2023-10-03T11:39:39.742Z,101606.06
2023-10-03T11:42:27.795Z,101610.16
2023-10-03T11:45:01.687Z,101622.34
2023-10-03T11:47:29.389Z,101624.16
2023-10-03T11:49:59.805Z,101640.13
2023-10-03T11:52:26.333Z,101641.38
2023-10-03T11:54:53.025Z,101634.34
2023-10-03T11:57:19.786Z,101642.28
2023-10-03T11:59:47.376Z,101644.47
2023-10-03T12:02:13.814Z,101657.56
2023-10-03T12:04:40.355Z,101658.25
2023-10-03T12:07:06.819Z,101664.09
2023-10-03T12:09:33.219Z,101653.94
2023-10-03T12:12:01.806Z,101660.03
2023-10-03T12:14:30.373Z,101681.38
2023-10-03T12:16:56.903Z,101681.25
2023-10-03T12:19:23.456Z,101676.94
2023-10-03T12:21:49.921Z,101690.88
2023-10-03T12:24:16.475Z,101699.66
2023-10-03T12:26:42.943Z,101709.03
2023-10-03T12:29:11.700Z,101706.13
2023-10-03T12:31:38.699Z,101712.09
2023-10-03T12:34:05.174Z,101710.78
2023-10-03T12:36:35.012Z,101715.25
2023-10-03T12:39:12.088Z,101725.53
2023-10-03T12:41:39.607Z,101730.44
2023-10-03T12:44:06.347Z,101738.19
2023-10-03T12:46:32.783Z,101735.91
2023-10-03T12:48:59.584Z,101725.81
2023-10-03T12:51:26.037Z,101735.56
2023-10-03T12:53:53.324Z,101738.44
2023-10-03T12:56:19.952Z,101746.56
2023-10-03T12:58:46.895Z,101741.59
2023-10-03T13:01:14.354Z,101741.84
2023-10-03T13:03:41.164Z,101746.91
2023-10-03T13:06:09.050Z,101756.50
2023-10-03T13:08:35.599Z,101765.16
2023-10-03T13:11:07.355Z,101766.13
2023-10-03T13:13:34.069Z,101772.13
2023-10-03T13:16:00.706Z,101789.81
2023-10-03T13:18:27.279Z,101793.00
2023-10-03T13:20:54.580Z,101799.69
2023-10-03T13:23:21.609Z,101813.81
2023-10-03T13:25:48.212Z,101807.53
2023-10-03T13:28:15.956Z,101813.53
2023-10-03T13:30:42.629Z,101819.81
2023-10-03T13:33:09.368Z,101830.25
2023-10-03T13:35:36.372Z,101828.63
2023-10-03T13:38:04.468Z,101836.19
2023-10-03T13:40:31.114Z,101842.16
2023-10-03T13:42:59.293Z,101836.59
2023-10-03T13:45:26.939Z,101840.75
2023-10-03T13:47:55.275Z,101840.41
2023-10-03T13:50:22.152Z,101829.34
2023-10-03T13:52:52.541Z,101842.88
2023-10-03T13:55:21.715Z,101844.31
2023-10-03T13:57:49.317Z,101846.47
2023-10-03T14:00:16.517Z,101850.38
2023-10-03T14:02:46.073Z,101854.13
2023-10-03T14:05:13.977Z,101853.00
2023-10-03T14:07:40.571Z,101855.31
2023-10-03T14:10:07.816Z,101864.38
2023-10-03T14:12:34.866Z,101862.78
2023-10-03T14:15:03.072Z,101871.72
2023-10-03T14:17:30.540Z,101870.13
2023-10-03T14:19:57.148Z,101873.44
2023-10-03T14:22:23.824Z,101878.47
2023-10-03T14:24:50.323Z,101878.13
2023-10-03T14:27:16.979Z,101882.50
2023-10-03T14:29:44.422Z,101889.34
2023-10-03T14:32:16.181Z,101899.72
2023-10-03T14:34:42.719Z,101902.13
2023-10-03T14:37:10.735Z,101905.53
2023-10-03T14:39:37.535Z,101905.34
2023-10-03T14:42:04.247Z,101899.06
2023-10-03T14:44:30.815Z,101899.06
2023-10-03T14:46:57.311Z,101889.66
2023-10-03T14:49:23.912Z,101903.34
2023-10-03T14:51:50.919Z,101903.28
2023-10-03T14:54:20.034Z,101907.44
2023-10-03T14:56:48.810Z,101913.31
2023-10-03T14:59:16.057Z,101919.13
2023-10-03T15:01:42.909Z,101919.19
2023-10-03T15:04:11.125Z,101925.06
2023-10-03T15:06:39.980Z,101935.50
2023-10-03T15:09:08.792Z,101940.03
2023-10-03T15:11:36.603Z,101944.16
2023-10-03T15:14:04.194Z,101953.66
2023-10-03T15:16:33.844Z,101948.25
2023-10-03T15:19:00.882Z,101945.66
2023-10-03T15:21:27.743Z,101950.03
2023-10-03T15:23:54.559Z,101958.69
2023-10-03T15:26:21.919Z,101966.59
2023-10-03T15:28:49.667Z,101962.31
2023-10-03T15:31:26.312Z,101969.44
2023-10-03T15:33:56.286Z,101980.00
2023-10-03T15:36:22.883Z,101978.50
2023-10-03T15:38:49.445Z,101977.16
2023-10-03T15:41:16.323Z,101985.19
2023-10-03T15:43:44.528Z,101991.97
2023-10-03T15:46:11.755Z,101985.00
2023-10-03T15:48:41.727Z,101994.28
2023-10-03T15:51:15.139Z,101998.34
2023-10-03T15:53:44.684Z,102001.88
2023-10-03T15:56:15.038Z,102012.50
2023-10-03T15:58:42.486Z,102012.69
2023-10-03T16:01:13.942Z,102006.75
2023-10-03T16:03:43.858Z,102011.09
2023-10-03T16:06:12.081Z,102018.88
2023-10-03T16:08:40.185Z,102020.53
2023-10-03T16:11:06.939Z,102032.47
2023-10-03T16:13:35.570Z,102026.47
2023-10-03T16:16:02.251Z,102037.09
2023-10-03T16:18:28.916Z,102035.53
2023-10-03T16:20:55.577Z,102039.25
2023-10-03T16:23:22.946Z,102036.03
2023-10-03T16:25:49.729Z,102043.81
2023-10-03T16:28:17.299Z,102045.75
2023-10-03T16:30:43.820Z,102050.28
2023-10-03T16:33:11.501Z,102055.69
2023-10-03T16:35:38.533Z,102052.53
2023-10-03T16:38:04.986Z,102053.63
2023-10-03T16:40:32.118Z,102064.25
2023-10-03T16:43:00.884Z,102061.84
2023-10-03T16:45:27.955Z,102068.84
2023-10-03T16:47:54.581Z,102070.66
2023-10-03T16:50:22.071Z,102074.25
2023-10-03T16:52:48.785Z,102080.31
2023-10-03T16:55:18.673Z,102077.94
2023-10-03T16:57:45.454Z,102079.94
2023-10-03T17:00:14.958Z,102089.59
2023-10-03T17:02:46.723Z,102090.69
2023-10-03T17:05:15.064Z,102098.56
2023-10-03T17:07:42.786Z,102098.72
2023-10-03T17:10:19.652Z,102098.84
2023-10-03T17:12:46.930Z,102107.50
2023-10-03T17:15:15.411Z,102101.47
2023-10-03T17:17:42.329Z,102101.69
2023-10-03T17:20:12.348Z,102109.56
2023-10-03T17:22:40.301Z,102123.59
2023-10-03T17:25:07.352Z,102123.63
2023-10-03T17:27:33.939Z,102122.59
2023-10-03T17:30:00.400Z,102125.09
2023-10-03T17:32:29.905Z,102131.91
2023-10-03T17:34:57.721Z,102136.16
2023-10-03T17:37:24.889Z,102146.50
2023-10-03T17:39:53.032Z,102146.50
2023-10-03T17:42:21.301Z,102167.19
2023-10-03T17:44:50.911Z,102162.03
2023-10-03T17:47:19.037Z,102163.91
2023-10-03T17:49:45.722Z,102163.16
2023-10-03T17:52:16.415Z,102160.81
2023-10-03T17:54:44.416Z,102162.66
2023-10-03T17:57:11.057Z,102175.56
2023-10-03T17:59:37.722Z,102182.50
2023-10-03T18:02:04.181Z,102186.00
2023-10-03T18:04:30.733Z,102189.56
2023-10-03T18:06:57.322Z,102193.03
2023-10-03T18:09:25.708Z,102190.38
2023-10-03T18:11:52.389Z,102196.59
2023-10-03T18:14:19.076Z,102197.59
2023-10-03T18:16:45.562Z,102208.19
2023-10-03T18:19:12.131Z,102205.69
2023-10-03T18:21:38.903Z,102209.25
2023-10-03T18:24:06.627Z,102211.13
2023-10-03T18:26:33.148Z,102209.59
2023-10-03T18:29:02.753Z,102212.22
2023-10-03T18:31:29.381Z,102223.56
2023-10-03T18:33:55.932Z,102221.06
2023-10-03T18:36:23.435Z,102224.56
2023-10-03T18:38:50.117Z,102229.88
2023-10-03T18:41:16.707Z,102228.28
2023-10-03T18:43:44.330Z,102239.56
2023-10-03T18:46:11.354Z,102244.81
2023-10-03T18:48:38.277Z,102241.41
2023-10-03T18:51:09.406Z,102244.94
2023-10-03T18:53:37.858Z,102251.06
2023-10-03T18:56:09.823Z,102258.03
2023-10-03T18:58:36.981Z,102268.41
2023-10-03T19:01:03.661Z,102265.09
2023-10-03T19:03:31.550Z,102259.16
2023-10-03T19:06:07.143Z,102271.25
2023-10-03T19:08:33.690Z,102278.16
2023-10-03T19:11:00.125Z,102283.41
2023-10-03T19:13:28.528Z,102281.81
2023-10-03T19:15:55.004Z,102287.88
2023-10-03T19:18:21.512Z,102301.69
2023-10-03T19:20:48.196Z,102305.19
2023-10-03T19:23:16.728Z,102306.97
2023-10-03T19:25:43.681Z,102309.59
2023-10-03T19:28:11.298Z,102306.16
2023-10-03T19:30:38.666Z,102311.38
2023-10-03T19:33:06.550Z,102315.69
2023-10-03T19:35:34.849Z,102312.25
2023-10-03T19:38:02.160Z,102325.03
2023-10-03T19:40:30.744Z,102319.00
2023-10-03T19:42:57.239Z,102335.38
2023-10-03T19:45:24.188Z,102327.72
2023-10-03T19:47:50.783Z,102338.94
2023-10-03T19:50:17.765Z,102344.16
2023-10-03T19:52:44.966Z,102333.91
2023-10-03T19:55:13.384Z,102333.13
2023-10-03T19:57:40.043Z,102330.63
2023-10-03T20:00:08.292Z,102337.53
2023-10-03T20:02:35.164Z,102338.44
2023-10-03T20:05:01.773Z,102339.28
2023-10-03T20:07:28.280Z,102341.84
2023-10-03T20:09:54.800Z,102337.53
2023-10-03T20:12:21.559Z,102345.31
2023-10-03T20:14:48.128Z,102347.97
2023-10-03T20:17:15.640Z,102342.06
2023-10-03T20:19:42.629Z,102353.28
2023-10-03T20:22:09.353Z,102345.63
2023-10-03T20:24:35.898Z,102342.25
2023-10-03T20:27:02.582Z,102349.22
2023-10-03T20:29:29.168Z,102349.31
2023-10-03T20:31:55.746Z,102342.59
2023-10-03T20:34:22.187Z,102356.38
2023-10-03T20:36:49.109Z,102351.28
2023-10-03T20:39:16.056Z,102347.06
2023-10-03T20:41:42.628Z,102353.06
2023-10-03T20:44:09.428Z,102360.84
2023-10-03T20:46:36.072Z,102351.44
2023-10-03T20:49:02.887Z,102359.19
2023-10-03T20:51:29.657Z,102358.41
2023-10-03T20:53:56.177Z,102359.28
2023-10-03T20:56:22.729Z,102361.09
2023-10-03T20:58:52.332Z,102365.44
2023-10-03T21:01:20.638Z,102369.78
2023-10-03T21:03:49.168Z,102367.22
2023-10-03T21:06:16.000Z,102375.84
2023-10-03T21:08:44.001Z,102381.03
2023-10-03T21:11:15.883Z,102375.03
2023-10-03T21:13:43.964Z,102382.78
2023-10-03T21:16:10.672Z,102378.53
2023-10-03T21:18:37.296Z,102380.25
2023-10-03T21:21:03.937Z,102377.75
2023-10-03T21:23:31.656Z,102373.47
2023-10-03T21:26:06.374Z,102381.22
2023-10-03T21:28:32.946Z,102382.97
2023-10-03T21:30:59.408Z,102374.47
2023-10-03T21:33:26.117Z,102384.78
2023-10-03T21:35:52.673Z,102394.22
2023-10-03T21:38:19.613Z,102383.97
2023-10-03T21:40:46.044Z,102380.53
2023-10-03T21:43:14.025Z,102385.66
2023-10-03T21:45:40.510Z,102386.47
2023-10-03T21:48:10.085Z,102388.94
2023-10-03T21:50:37.528Z,102390.59
2023-10-03T21:53:04.222Z,102388.88
2023-10-03T21:55:30.861Z,102386.34
2023-10-03T21:57:57.754Z,102395.81
2023-10-03T22:00:35.556Z,102392.44
2023-10-03T22:03:03.204Z,102400.22
2023-10-03T22:05:30.086Z,102396.81
2023-10-03T22:07:58.175Z,102395.13
2023-10-03T22:10:25.604Z,102393.47
2023-10-03T22:12:52.992Z,102386.59
2023-10-03T22:15:19.680Z,102388.28
2023-10-03T22:17:47.072Z,102388.28
2023-10-03T22:20:14.449Z,102395.13
2023-10-03T22:22:41.475Z,102394.22
2023-10-03T22:25:09.800Z,102392.44
2023-10-03T22:27:39.154Z,102401.81
2023-10-03T22:30:06.926Z,102394.06
2023-10-03T22:32:33.649Z,102406.00
2023-10-03T22:35:00.417Z,102402.56
2023-10-03T22:37:27.181Z,102404.31
2023-10-03T22:39:53.747Z,102402.63
2023-10-03T22:42:20.309Z,102415.50
2023-10-03T22:44:47.529Z,102410.38
2023-10-03T22:47:14.115Z,102417.28
2023-10-03T22:49:40.525Z,102415.59
2023-10-03T22:52:07.046Z,102418.19
2023-10-03T22:54:35.610Z,102421.63
2023-10-03T22:57:02.151Z,102414.81
2023-10-03T22:59:28.702Z,102412.25
2023-10-03T23:01:55.596Z,102416.56
2023-10-03T23:04:22.762Z,102416.56
2023-10-03T23:06:49.317Z,102420.06
2023-10-03T23:09:15.942Z,102414.09
2023-10-03T23:11:43.691Z,102418.38
2023-10-03T23:14:10.629Z,102421.88
2023-10-03T23:16:37.126Z,102424.50
2023-10-03T23:19:04.778Z,102432.25
2023-10-03T23:21:31.449Z,102428.88
2023-10-03T23:24:01.122Z,102426.38
2023-10-03T23:26:27.840Z,102428.13
2023-10-03T23:28:54.367Z,102427.31
2023-10-03T23:31:20.821Z,102435.03
2023-10-03T23:33:47.347Z,102440.22
2023-10-03T23:36:14.036Z,102436.78
2023-10-03T23:38:41.162Z,102441.13
2023-10-03T23:41:07.833Z,102442.84
2023-10-03T23:43:34.702Z,102444.59
2023-10-03T23:46:10.760Z,102449.78
2023-10-03T23:48:37.668Z,102449.81
2023-10-03T23:51:04.488Z,102455.00
2023-10-03T23:53:31.453Z,102458.44
2023-10-03T23:55:59.566Z,102455.03
2023-10-03T23:58:26.355Z,102463.66
